Copper Queen, Arizona
Current Conditions -  °F | °C
As of 11:56 AM on Sunday 23 Nov 2014 (Local Time) from KDUG Reporting Station
Clear Clear  
Wind Chill: 18°   Ceiling: Unl
Heat Index: 18°   Visibility: 10mi
Dew Point: -3°   Wind: 17mph
Humidity: 25%   Direction: 300°WNW
Pressure: 30.03"   Gusts: 28mph
Location:  31.4799°N, 109.96°W
Report Text: KDUG 231856Z AUTO 30015G24KT 10SM CLR 18/M03 A3003 RMK AO2 PK WND 30026/1824 SLP138 T01781028
Loading
Personal Weather Stations






























Interactive Weather Map New forecast layout! Learn more

10-Day Weather Forecast

Advertisements
Track Severe Weather on mobile